首页
METAR-TAF:

METAR-TAF

机场 :

Meridian Regional Airport (Key Field)

子午线, 密西西比州, 美国

纬度: 32-20-17N, 经度: 088-44-52W, 海拔: 90米

当前天气观测

该预报发布于48分钟前的17:58 UTC
风速3节,风向南转西南
温度 19°C
湿度 52%
气压 1024 hPa
能見度: 16.1公里
天空无云

METAR: KMEI 311758Z 20003KT 10SM CLR 19/09 A3023 RMK AO2 SLP236 T01940089 10200 20061 58016 $

时间: 13:46 (18:46 UTC)

预报

该预报发布于1小时和26分钟前的17:20 UTC
预报有效从31日的 18点(UTC)到 01日的 18点(UTC)
风速5节,风向南转南东
能見度: 10公里
天空无云

TAF: KMEI 311720Z 3118/0118 16005KT P6SM SKC

超过4000个机场的气象观测和天气预报(METAR&TAF报告)。

可查询的气象台以黄色和红色小点在地图上表示。

将鼠标移到小点上方,可查看气象台名称。

然后点击查看天气观测和预报。

如需切换地图:点击带黑十字的绿色按钮放大地图;点击带横线的绿色按钮缩小地图;或者点击绿色箭头查看邻近地区的地图。


METAR-TAF: